createdAt,value
2023-01-21T00:00:34.104Z,1.70
2023-01-21T00:03:19.858Z,1.70
2023-01-21T00:06:06.910Z,1.80
2023-01-21T00:08:52.691Z,1.90
2023-01-21T00:11:38.148Z,1.80
2023-01-21T00:14:24.179Z,1.90
2023-01-21T00:17:11.089Z,2.10
2023-01-21T00:19:56.402Z,1.80
2023-01-21T00:22:42.174Z,1.90
2023-01-21T00:25:27.981Z,1.90
2023-01-21T00:28:13.693Z,1.90
2023-01-21T00:31:00.192Z,2.00
2023-01-21T00:33:48.351Z,2.00
2023-01-21T00:36:33.910Z,2.10
2023-01-21T00:39:19.629Z,2.00
2023-01-21T00:42:05.244Z,2.10
2023-01-21T00:44:51.234Z,2.40
2023-01-21T00:47:36.796Z,2.60
2023-01-21T00:50:24.023Z,2.80
2023-01-21T00:53:09.837Z,2.60
2023-01-21T00:55:59.095Z,2.50
2023-01-21T00:58:44.971Z,2.50
2023-01-21T01:01:34.523Z,2.40
2023-01-21T01:04:20.330Z,2.30
2023-01-21T01:07:07.318Z,2.30
2023-01-21T01:09:52.798Z,1.90
2023-01-21T01:12:38.309Z,1.80
2023-01-21T01:15:23.994Z,1.60
2023-01-21T01:18:09.769Z,1.70
2023-01-21T01:20:55.193Z,1.70
2023-01-21T01:23:42.911Z,1.60
2023-01-21T01:26:28.395Z,1.50
2023-01-21T01:29:14.411Z,1.60
2023-01-21T01:31:59.937Z,1.70
2023-01-21T01:34:45.545Z,1.60
2023-01-21T01:37:31.125Z,1.50
2023-01-21T01:40:18.693Z,1.30
2023-01-21T01:43:10.930Z,1.60
2023-01-21T01:45:57.035Z,1.70
2023-01-21T01:48:44.539Z,1.50
2023-01-21T01:51:39.454Z,1.60
2023-01-21T01:54:30.095Z,1.80
2023-01-21T01:57:20.217Z,1.60
2023-01-21T02:00:08.926Z,1.60
2023-01-21T02:03:16.161Z,1.30
2023-01-21T02:06:02.639Z,1.40
2023-01-21T02:08:48.876Z,1.20
2023-01-21T02:11:36.335Z,1.30
2023-01-21T02:14:23.632Z,1.50
2023-01-21T02:17:30.324Z,1.70
2023-01-21T02:20:41.605Z,1.70
2023-01-21T02:23:42.048Z,1.60
2023-01-21T02:27:03.507Z,1.70
2023-01-21T02:30:16.995Z,1.70
2023-01-21T02:33:33.911Z,1.40
2023-01-21T02:36:53.569Z,1.70
2023-01-21T02:39:57.821Z,1.20
2023-01-21T02:42:47.025Z,1.30
2023-01-21T02:45:37.398Z,1.30
2023-01-21T02:48:29.059Z,1.30
2023-01-21T02:51:18.901Z,1.10
2023-01-21T02:54:14.519Z,1.30
2023-01-21T02:57:00.254Z,1.40
2023-01-21T02:59:49.815Z,1.60
2023-01-21T03:03:06.184Z,1.30
2023-01-21T03:06:15.011Z,1.10
2023-01-21T03:09:12.091Z,1.20
2023-01-21T03:12:06.179Z,1.10
2023-01-21T03:15:18.815Z,1.30
2023-01-21T03:18:09.702Z,1.40
2023-01-21T03:20:58.831Z,1.60
2023-01-21T03:23:48.679Z,1.50
2023-01-21T03:26:38.286Z,1.40
2023-01-21T03:29:30.365Z,1.10
2023-01-21T03:32:18.397Z,1.20
2023-01-21T03:35:06.853Z,1.40
2023-01-21T03:37:56.525Z,1.50
2023-01-21T03:40:47.146Z,1.60
2023-01-21T03:43:34.481Z,1.70
2023-01-21T03:46:25.651Z,1.90
2023-01-21T03:49:16.913Z,2.00
2023-01-21T03:52:04.683Z,1.70
2023-01-21T03:54:50.375Z,1.70
2023-01-21T03:57:35.967Z,1.80
2023-01-21T04:00:22.996Z,1.60
2023-01-21T04:03:08.688Z,1.70
2023-01-21T04:05:54.646Z,1.80
2023-01-21T04:08:40.362Z,1.90
2023-01-21T04:11:26.389Z,2.00
2023-01-21T04:14:12.741Z,2.00
2023-01-21T04:16:59.783Z,2.00
2023-01-21T04:19:45.599Z,1.90
2023-01-21T04:22:31.665Z,1.90
2023-01-21T04:25:17.373Z,1.90
2023-01-21T04:28:03.089Z,1.80
2023-01-21T04:30:49.113Z,1.60
2023-01-21T04:33:36.558Z,1.60
2023-01-21T04:36:22.378Z,1.70
2023-01-21T04:39:07.940Z,1.70
2023-01-21T04:41:53.624Z,1.80
2023-01-21T04:44:39.139Z,1.90
2023-01-21T04:47:24.735Z,1.90
2023-01-21T04:50:13.450Z,1.80
2023-01-21T04:52:59.323Z,1.80
2023-01-21T04:55:44.939Z,1.70
2023-01-21T04:58:30.663Z,1.70
2023-01-21T05:01:16.161Z,1.70
2023-01-21T05:04:02.218Z,1.70
2023-01-21T05:06:49.523Z,1.70
2023-01-21T05:09:35.682Z,1.60
2023-01-21T05:12:21.550Z,1.60
2023-01-21T05:15:09.052Z,1.50
2023-01-21T05:17:54.992Z,1.40
2023-01-21T05:20:41.076Z,1.40
2023-01-21T05:23:28.560Z,1.40
2023-01-21T05:26:14.728Z,1.50
2023-01-21T05:29:00.928Z,1.50
2023-01-21T05:31:46.792Z,1.60
2023-01-21T05:34:32.604Z,1.60
2023-01-21T05:37:18.770Z,1.60
2023-01-21T05:40:07.172Z,1.60
2023-01-21T05:42:52.691Z,1.50
2023-01-21T05:45:38.445Z,1.30
2023-01-21T05:48:24.470Z,1.50
2023-01-21T05:51:10.589Z,1.60
2023-01-21T05:53:56.250Z,1.60
2023-01-21T05:56:43.177Z,1.60
2023-01-21T05:59:28.634Z,1.80
2023-01-21T06:02:24.040Z,1.80
2023-01-21T06:05:09.699Z,2.00
2023-01-21T06:07:55.131Z,2.20
2023-01-21T06:10:41.212Z,1.80
2023-01-21T06:13:28.495Z,2.00
2023-01-21T06:16:14.290Z,1.90
2023-01-21T06:19:00.206Z,2.00
2023-01-21T06:21:45.856Z,2.20
2023-01-21T06:24:31.659Z,2.20
2023-01-21T06:27:17.455Z,2.10
2023-01-21T06:30:05.965Z,2.40
2023-01-21T06:32:52.184Z,2.40
2023-01-21T06:35:37.626Z,2.20
2023-01-21T06:38:23.415Z,2.10
2023-01-21T06:41:08.926Z,1.80
2023-01-21T06:43:54.448Z,1.60
2023-01-21T06:46:45.962Z,1.70
2023-01-21T06:49:37.584Z,1.70
2023-01-21T06:52:23.466Z,2.10
2023-01-21T06:55:09.968Z,2.40
2023-01-21T06:57:55.362Z,2.30
2023-01-21T07:00:41.076Z,2.00
2023-01-21T07:03:29.315Z,1.50
2023-01-21T07:06:15.359Z,1.60
2023-01-21T07:09:01.229Z,1.90
2023-01-21T07:11:47.209Z,1.80
2023-01-21T07:14:33.275Z,1.70
2023-01-21T07:17:19.267Z,1.40
2023-01-21T07:20:08.062Z,1.50
2023-01-21T07:22:53.775Z,1.80
2023-01-21T07:25:39.450Z,1.90
2023-01-21T07:28:24.838Z,1.80
2023-01-21T07:31:11.190Z,1.90
2023-01-21T07:33:57.051Z,1.50
2023-01-21T07:36:44.216Z,1.50
2023-01-21T07:39:30.020Z,1.80
2023-01-21T07:42:15.886Z,1.80
2023-01-21T07:45:03.866Z,1.90
2023-01-21T07:47:49.636Z,2.10
2023-01-21T07:50:35.938Z,2.20
2023-01-21T07:53:23.056Z,1.90
2023-01-21T07:56:12.499Z,2.20
2023-01-21T07:58:57.985Z,1.90
2023-01-21T08:01:43.657Z,1.80
2023-01-21T08:04:29.304Z,1.90
2023-01-21T08:07:15.080Z,2.00
2023-01-21T08:10:02.322Z,1.70
2023-01-21T08:12:48.580Z,1.60
2023-01-21T08:15:34.459Z,1.70
2023-01-21T08:18:22.137Z,1.50
2023-01-21T08:21:07.707Z,1.70
2023-01-21T08:23:53.665Z,1.80
2023-01-21T08:26:40.520Z,1.80
2023-01-21T08:29:26.805Z,1.90
2023-01-21T08:32:12.607Z,1.90
2023-01-21T08:34:58.136Z,1.70
2023-01-21T08:37:43.946Z,2.00
2023-01-21T08:40:29.900Z,2.20
2023-01-21T08:43:17.301Z,2.30
2023-01-21T08:46:03.602Z,2.20
2023-01-21T08:48:49.452Z,2.30
2023-01-21T08:51:35.477Z,2.60
2023-01-21T08:54:21.431Z,2.80
2023-01-21T08:57:07.909Z,2.50
2023-01-21T08:59:55.254Z,2.50
2023-01-21T09:02:41.024Z,2.90
2023-01-21T09:05:27.110Z,3.10
2023-01-21T09:08:12.898Z,3.00
2023-01-21T09:11:01.655Z,2.70
2023-01-21T09:13:47.716Z,3.10
2023-01-21T09:16:36.359Z,3.50
2023-01-21T09:19:23.929Z,4.10
2023-01-21T09:22:09.857Z,4.40
2023-01-21T09:24:55.811Z,4.30
2023-01-21T09:27:41.462Z,4.10
2023-01-21T09:30:27.155Z,4.20
2023-01-21T09:33:15.593Z,4.40
2023-01-21T09:36:02.556Z,4.30
2023-01-21T09:38:49.497Z,4.30
2023-01-21T09:41:37.428Z,4.50
2023-01-21T09:44:29.062Z,4.80
2023-01-21T09:47:20.024Z,5.00
2023-01-21T09:50:13.257Z,4.80
2023-01-21T09:53:04.820Z,4.90
2023-01-21T09:55:53.066Z,5.10
2023-01-21T09:58:44.174Z,4.90
2023-01-21T10:01:34.178Z,4.70
2023-01-21T10:04:33.877Z,4.80
2023-01-21T10:07:27.766Z,5.00
2023-01-21T10:10:20.396Z,5.10
2023-01-21T10:13:21.956Z,5.10
2023-01-21T10:16:14.296Z,5.10
2023-01-21T10:19:01.863Z,5.40
2023-01-21T10:21:52.139Z,5.40
2023-01-21T10:24:45.221Z,5.20
2023-01-21T10:27:35.424Z,5.00
2023-01-21T10:30:23.934Z,5.10
2023-01-21T10:33:17.128Z,5.30
2023-01-21T10:36:18.689Z,5.10
2023-01-21T10:39:13.064Z,4.90
2023-01-21T10:42:24.313Z,5.00
2023-01-21T10:45:16.159Z,5.40
2023-01-21T10:48:09.687Z,5.20
2023-01-21T10:51:00.910Z,5.50
2023-01-21T10:53:50.503Z,5.10
2023-01-21T10:56:44.452Z,5.40
2023-01-21T10:59:33.606Z,5.80
2023-01-21T11:02:25.445Z,5.90
2023-01-21T11:05:12.193Z,6.40
2023-01-21T11:07:58.723Z,6.30
2023-01-21T11:10:46.553Z,5.50
2023-01-21T11:13:32.225Z,6.00
2023-01-21T11:16:34.765Z,6.10
2023-01-21T11:19:23.560Z,6.70
2023-01-21T11:22:22.151Z,7.20
2023-01-21T11:25:24.750Z,7.40
2023-01-21T11:28:24.365Z,7.90
2023-01-21T11:31:13.854Z,8.00
2023-01-21T11:34:14.056Z,8.40
2023-01-21T11:37:01.933Z,8.70
2023-01-21T11:39:54.029Z,9.00
2023-01-21T11:42:47.424Z,9.20
2023-01-21T11:45:37.819Z,9.30
2023-01-21T11:48:23.807Z,10.10
2023-01-21T11:51:12.047Z,12.00
2023-01-21T11:54:12.107Z,13.20
2023-01-21T11:57:00.172Z,13.40
2023-01-21T11:59:47.976Z,14.30
2023-01-21T12:02:39.300Z,14.80
2023-01-21T12:05:32.447Z,15.20
2023-01-21T12:08:23.300Z,15.50
2023-01-21T12:11:08.995Z,16.20
2023-01-21T12:14:05.006Z,16.40
2023-01-21T12:17:02.352Z,16.40
2023-01-21T12:20:02.263Z,16.60
2023-01-21T12:23:06.803Z,17.10
2023-01-21T12:25:59.542Z,17.60
2023-01-21T12:32:01.576Z,15.50
2023-01-21T12:34:52.380Z,15.00
2023-01-21T12:37:46.801Z,15.20
2023-01-21T12:40:36.978Z,14.90
2023-01-21T12:43:28.437Z,14.20
2023-01-21T12:46:18.820Z,13.40
2023-01-21T12:49:11.986Z,11.90
2023-01-21T12:52:03.426Z,12.70
2023-01-21T12:54:53.107Z,12.40
2023-01-21T12:57:44.140Z,12.90
2023-01-21T13:00:33.862Z,13.80
2023-01-21T13:03:27.837Z,14.40
2023-01-21T13:06:19.945Z,13.10
2023-01-21T13:09:14.469Z,12.10
2023-01-21T13:12:04.345Z,11.70
2023-01-21T13:14:57.121Z,10.90
2023-01-21T13:17:48.135Z,10.90
2023-01-21T13:20:36.841Z,10.60
2023-01-21T13:23:29.827Z,9.50
2023-01-21T13:26:24.056Z,10.30
2023-01-21T13:29:16.405Z,11.30
2023-01-21T13:32:19.604Z,12.40
2023-01-21T13:35:23.088Z,13.50
2023-01-21T13:38:20.067Z,14.30
2023-01-21T13:41:17.263Z,14.00
2023-01-21T13:44:23.580Z,12.30
2023-01-21T13:47:19.828Z,11.90
2023-01-21T13:50:18.540Z,10.80
2023-01-21T13:53:27.646Z,10.20
2023-01-21T13:56:32.833Z,9.30
2023-01-21T13:59:23.424Z,8.10
2023-01-21T14:02:15.130Z,8.20
2023-01-21T14:05:05.967Z,8.10
2023-01-21T14:07:57.455Z,8.40
2023-01-21T14:10:50.600Z,8.20
2023-01-21T14:14:11.452Z,7.90
2023-01-21T14:17:23.685Z,7.80
2023-01-21T14:20:28.377Z,7.60
2023-01-21T14:23:33.409Z,7.40
2023-01-21T14:26:33.931Z,7.70
2023-01-21T14:29:26.032Z,7.60
2023-01-21T14:32:15.605Z,7.60
2023-01-21T14:35:13.161Z,7.50
2023-01-21T14:38:09.322Z,7.40
2023-01-21T14:41:06.263Z,7.10
2023-01-21T14:43:52.749Z,7.00
2023-01-21T14:46:38.481Z,6.70
2023-01-21T14:49:39.561Z,6.40
2023-01-21T14:52:30.794Z,6.10
2023-01-21T14:55:27.894Z,6.10
2023-01-21T14:58:23.122Z,6.20
2023-01-21T15:01:26.360Z,6.10
2023-01-21T15:04:24.612Z,6.30
2023-01-21T15:07:17.122Z,6.40
2023-01-21T15:10:10.252Z,6.60
2023-01-21T15:12:58.671Z,6.60
2023-01-21T15:16:05.996Z,6.60
2023-01-21T15:19:32.877Z,6.40
2023-01-21T15:22:21.984Z,6.30
2023-01-21T15:25:34.331Z,6.20
2023-01-21T15:28:43.793Z,6.40
2023-01-21T15:31:43.021Z,6.30
2023-01-21T15:34:33.121Z,6.30
2023-01-21T15:37:22.623Z,6.20
2023-01-21T15:40:17.323Z,5.80
2023-01-21T15:43:06.873Z,6.00
2023-01-21T15:46:01.391Z,5.80
2023-01-21T15:49:09.513Z,5.90
2023-01-21T15:52:05.794Z,5.60
2023-01-21T15:54:58.873Z,5.70
2023-01-21T15:57:52.447Z,5.70
2023-01-21T16:00:48.028Z,5.80
2023-01-21T16:03:38.425Z,5.70
2023-01-21T16:06:34.513Z,5.50
2023-01-21T16:09:29.943Z,5.00
2023-01-21T16:12:26.786Z,5.00
2023-01-21T16:15:18.113Z,5.00
2023-01-21T16:18:15.071Z,4.90
2023-01-21T16:21:03.094Z,4.50
2023-01-21T16:23:51.287Z,4.50
2023-01-21T16:26:37.196Z,4.70
2023-01-21T16:29:23.037Z,4.70
2023-01-21T16:32:16.771Z,4.80
2023-01-21T16:35:02.618Z,4.90
2023-01-21T16:37:54.059Z,4.80
2023-01-21T16:40:41.167Z,4.80
2023-01-21T16:43:27.936Z,4.70
2023-01-21T16:46:16.140Z,4.90
2023-01-21T16:49:04.995Z,4.70
2023-01-21T16:51:56.769Z,4.30
2023-01-21T16:54:48.767Z,4.40
2023-01-21T16:57:36.031Z,4.70
2023-01-21T17:00:24.450Z,4.80
2023-01-21T17:03:12.241Z,5.00
2023-01-21T17:06:01.189Z,4.80
2023-01-21T17:08:53.424Z,4.90
2023-01-21T17:11:47.097Z,4.60
2023-01-21T17:14:35.045Z,4.20
2023-01-21T17:17:23.800Z,4.10
2023-01-21T17:20:35.360Z,4.30
2023-01-21T17:23:25.668Z,4.20
2023-01-21T17:26:16.928Z,4.00
2023-01-21T17:29:11.183Z,4.00
2023-01-21T17:31:59.752Z,4.10
2023-01-21T17:35:04.566Z,4.20
2023-01-21T17:37:55.001Z,3.90
2023-01-21T17:40:42.858Z,3.90
2023-01-21T17:43:28.901Z,3.90
2023-01-21T17:46:15.019Z,3.90
2023-01-21T17:49:07.482Z,4.20
2023-01-21T17:51:55.140Z,4.10
2023-01-21T17:54:40.790Z,4.30
2023-01-21T17:57:35.175Z,4.10
2023-01-21T18:00:35.791Z,4.10
2023-01-21T18:03:21.898Z,3.80
2023-01-21T18:06:16.366Z,3.80
2023-01-21T18:09:03.249Z,3.60
2023-01-21T18:11:50.494Z,3.60
2023-01-21T18:14:36.584Z,3.90
2023-01-21T18:17:24.731Z,3.70
2023-01-21T18:20:15.736Z,4.00
2023-01-21T18:23:03.284Z,3.70
2023-01-21T18:25:53.700Z,4.00
2023-01-21T18:28:39.139Z,4.20
2023-01-21T18:31:24.973Z,3.90
2023-01-21T18:34:12.035Z,4.10
2023-01-21T18:36:57.974Z,4.10
2023-01-21T18:39:45.070Z,4.10
2023-01-21T18:42:31.050Z,4.10
2023-01-21T18:45:19.682Z,4.00
2023-01-21T18:48:10.508Z,4.10
2023-01-21T18:50:56.429Z,3.80
2023-01-21T18:53:42.495Z,3.80
2023-01-21T18:56:29.755Z,3.90
2023-01-21T18:59:17.572Z,3.90
2023-01-21T19:02:04.181Z,3.80
2023-01-21T19:04:49.913Z,3.60
2023-01-21T19:07:35.952Z,3.70
2023-01-21T19:10:22.056Z,2.90
2023-01-21T19:13:09.964Z,3.00
2023-01-21T19:15:57.834Z,3.10
2023-01-21T19:18:43.970Z,3.20
2023-01-21T19:21:29.543Z,3.30
2023-01-21T19:24:15.174Z,3.30
2023-01-21T19:27:01.200Z,3.50
2023-01-21T19:29:48.366Z,3.40
2023-01-21T19:32:34.047Z,3.50
2023-01-21T19:35:21.337Z,3.70
2023-01-21T19:38:12.016Z,3.70
2023-01-21T19:40:57.756Z,3.80
2023-01-21T19:43:43.748Z,3.90
2023-01-21T19:46:31.200Z,3.90
2023-01-21T19:49:17.647Z,3.90
2023-01-21T19:52:04.104Z,3.60
2023-01-21T19:54:49.864Z,3.70
2023-01-21T19:57:36.728Z,3.60
2023-01-21T20:00:25.478Z,3.50
2023-01-21T20:03:12.974Z,3.40
2023-01-21T20:06:03.599Z,3.60
2023-01-21T20:08:49.703Z,3.60
2023-01-21T20:11:35.398Z,3.80
2023-01-21T20:14:20.999Z,3.80
2023-01-21T20:17:06.639Z,4.10
2023-01-21T20:19:54.093Z,3.70
2023-01-21T20:22:39.998Z,3.50
2023-01-21T20:25:29.167Z,3.40
2023-01-21T20:28:18.562Z,3.90
2023-01-21T20:31:07.189Z,3.80
2023-01-21T20:33:53.068Z,3.70
2023-01-21T20:36:41.542Z,3.60
2023-01-21T20:39:27.354Z,3.70
2023-01-21T20:42:13.685Z,3.90
2023-01-21T20:44:59.033Z,3.50
2023-01-21T20:47:50.196Z,3.60
2023-01-21T20:50:36.621Z,3.50
2023-01-21T20:53:23.630Z,3.40
2023-01-21T20:56:21.630Z,3.50
2023-01-21T20:59:09.309Z,3.70
2023-01-21T21:01:56.063Z,3.90
2023-01-21T21:04:41.864Z,3.90
2023-01-21T21:07:27.727Z,3.60
2023-01-21T21:10:20.103Z,3.60
2023-01-21T21:13:06.399Z,3.80
2023-01-21T21:15:53.243Z,3.50
2023-01-21T21:18:38.844Z,3.30
2023-01-21T21:21:24.423Z,3.40
2023-01-21T21:24:10.259Z,3.10
2023-01-21T21:26:57.281Z,3.40
2023-01-21T21:29:43.184Z,3.30
2023-01-21T21:32:28.935Z,3.20
2023-01-21T21:35:26.302Z,3.30
2023-01-21T21:38:14.707Z,3.50
2023-01-21T21:41:20.364Z,3.20
2023-01-21T21:44:08.472Z,2.90
2023-01-21T21:47:12.673Z,2.90
2023-01-21T21:49:58.431Z,2.70
2023-01-21T21:52:43.991Z,2.70
2023-01-21T21:55:31.703Z,2.70
2023-01-21T21:58:17.328Z,2.60
2023-01-21T22:01:12.895Z,2.70
2023-01-21T22:03:59.847Z,2.80
2023-01-21T22:06:45.686Z,2.80
2023-01-21T22:09:31.517Z,2.70
2023-01-21T22:12:17.083Z,2.60
2023-01-21T22:15:03.077Z,2.90
2023-01-21T22:17:50.501Z,3.00
2023-01-21T22:20:36.231Z,2.90
2023-01-21T22:23:22.400Z,2.50
2023-01-21T22:26:12.957Z,2.40
2023-01-21T22:28:58.908Z,2.60
2023-01-21T22:31:44.735Z,2.50
2023-01-21T22:34:32.364Z,2.70
2023-01-21T22:37:18.038Z,2.90
2023-01-21T22:40:03.769Z,2.80
2023-01-21T22:42:49.523Z,2.80
2023-01-21T22:45:35.332Z,2.70
2023-01-21T22:48:21.141Z,2.70
2023-01-21T22:51:10.971Z,2.60
2023-01-21T22:53:57.090Z,2.40
2023-01-21T22:56:53.515Z,2.30
2023-01-21T22:59:39.893Z,2.70
2023-01-21T23:02:25.481Z,2.70
2023-01-21T23:05:11.320Z,2.40
2023-01-21T23:10:46.672Z,2.50
2023-01-21T23:13:33.628Z,2.20
2023-01-21T23:16:21.148Z,2.30
2023-01-21T23:19:06.805Z,2.20
2023-01-21T23:21:52.375Z,2.20
2023-01-21T23:24:39.468Z,2.20
2023-01-21T23:27:25.481Z,2.40
2023-01-21T23:30:13.056Z,2.30
2023-01-21T23:32:59.941Z,2.10
2023-01-21T23:35:45.692Z,2.10
2023-01-21T23:38:31.817Z,2.10
2023-01-21T23:41:20.927Z,2.10
2023-01-21T23:44:06.698Z,2.10
2023-01-21T23:46:52.774Z,2.20
2023-01-21T23:49:38.221Z,2.00
2023-01-21T23:52:23.962Z,2.00
2023-01-21T23:55:10.627Z,2.20
2023-01-21T23:57:57.972Z,2.00
